Time;durP1;ratioP1;P1;durP2;ratioP2;P2;SDS_P1;SDS_P2;PMS_P1;PMS_P2;Temp;Humidity;BMP_temperature;BMP_pressure;BME280_temperature;BME280_humidity;BME280_pressure;Samples;Min_cycle;Max_cycle;Signal;HPM_P1;HPM_P2
2022/06/09 00:01:24;;;;;;;;;7.33;2.67;;;;;;;;5039824;28;46385;-68
2022/06/09 00:03:53;;;;;;;;;2.25;2.00;;;;;;;;5039753;28;45412;-68
2022/06/09 00:06:19;;;;;;;;;11.50;2.25;;;;;;;;5039745;28;45227;-68
2022/06/09 00:08:47;;;;;;;;;5.00;2.25;;;;;;;;5039805;28;45148;-68
2022/06/09 00:11:21;;;;;;;;;5.33;2.67;;;;;;;;5039422;28;46655;-69
2022/06/09 00:13:46;;;;;;;;;5.67;3.67;;;;;;;;5039502;28;45281;-68
2022/06/09 00:16:13;;;;;;;;;5.00;3.33;;;;;;;;5039613;28;45849;-69
2022/06/09 00:18:38;;;;;;;;;1.50;1.25;;;;;;;;5039739;28;45552;-69
2022/06/09 00:21:04;;;;;;;;;7.33;2.33;;;;;;;;5039339;28;46093;-69
2022/06/09 00:23:29;;;;;;;;;10.00;3.67;;;;;;;;5039420;28;45364;-68
2022/06/09 00:25:55;;;;;;;;;4.00;3.00;;;;;;;;5039476;28;45330;-68
2022/06/09 00:28:20;;;;;;;;;4.00;3.00;;;;;;;;5039733;28;45377;-69
2022/06/09 00:30:46;;;;;;;;;3.75;2.00;;;;;;;;5039064;28;46100;-68
2022/06/09 00:33:12;;;;;;;;;8.00;2.75;;;;;;;;5039235;28;45317;-69
2022/06/09 00:35:37;;;;;;;;;9.00;3.50;;;;;;;;5039278;28;45398;-68
2022/06/09 00:38:02;;;;;;;;;2.50;2.00;;;;;;;;5039337;28;45338;-69
2022/06/09 00:40:28;;;;;;;;;5.00;3.67;;;;;;;;5039120;28;46541;-68
2022/06/09 00:42:53;;;;;;;;;8.33;4.00;;;;;;;;5038943;28;45496;-68
2022/06/09 00:45:21;;;;;;;;;4.50;2.75;;;;;;;;5039141;28;45274;-68
2022/06/09 00:47:46;;;;;;;;;7.75;3.50;;;;;;;;5039246;28;45354;-68
2022/06/09 00:50:16;;;;;;;;;3.67;2.00;;;;;;;;5038869;28;45686;-68
2022/06/09 00:52:47;;;;;;;;;3.67;3.00;;;;;;;;5038950;28;45326;-68
2022/06/09 00:55:17;;;;;;;;;2.00;0.00;;;;;;;;5039096;28;45259;-68
2022/06/09 00:57:54;;;;;;;;;9.00;3.00;;;;;;;;5038755;28;45395;-68
2022/06/09 01:00:22;;;;;;;;;9.33;3.67;;;;;;;;5038658;28;45718;-68
2022/06/09 01:02:47;;;;;;;;;2.00;2.00;;;;;;;;5038638;28;46068;-68
2022/06/09 01:05:15;;;;;;;;;2.50;2.50;;;;;;;;5038741;28;45246;-68
2022/06/09 01:07:43;;;;;;;;;5.25;2.75;;;;;;;;5038844;28;45384;-68
2022/06/09 01:10:08;;;;;;;;;9.67;4.67;;;;;;;;5038592;28;45398;-69
2022/06/09 01:12:39;;;;;;;;;8.00;3.67;;;;;;;;5038550;28;45426;-68
2022/06/09 01:15:09;;;;;;;;;6.33;4.00;;;;;;;;5038518;28;45402;-68
2022/06/09 01:17:53;;;;;;;;;4.00;2.50;;;;;;;;5038706;28;45398;-68
2022/06/09 01:20:28;;;;;;;;;4.33;2.00;;;;;;;;5038206;28;45371;-68
2022/06/09 01:22:59;;;;;;;;;4.67;3.33;;;;;;;;5037813;28;45470;-68
2022/06/09 01:25:33;;;;;;;;;6.75;4.00;;;;;;;;5038459;28;45459;-69
2022/06/09 01:28:01;;;;;;;;;3.75;3.00;;;;;;;;5038794;28;45474;-68
2022/06/09 01:30:36;;;;;;;;;7.67;2.67;;;;;;;;5038131;28;46329;-68
2022/06/09 01:33:07;;;;;;;;;6.00;4.33;;;;;;;;5038066;28;45407;-68
2022/06/09 01:35:43;;;;;;;;;4.75;1.50;;;;;;;;5038200;28;45277;-68
2022/06/09 01:38:09;;;;;;;;;8.25;3.75;;;;;;;;5038440;28;45237;-68
2022/06/09 01:40:34;;;;;;;;;5.00;4.00;;;;;;;;5038029;28;45613;-68
2022/06/09 01:43:00;;;;;;;;;4.75;2.00;;;;;;;;5038274;28;45444;-68
2022/06/09 01:45:31;;;;;;;;;8.67;4.67;;;;;;;;5038189;28;45484;-68
2022/06/09 01:48:04;;;;;;;;;9.33;2.33;;;;;;;;5038079;28;45257;-69
2022/06/09 01:50:34;;;;;;;;;8.67;5.00;;;;;;;;5038023;28;45372;-68
2022/06/09 01:53:01;;;;;;;;;4.00;2.75;;;;;;;;5037922;28;45423;-68
2022/06/09 01:55:28;;;;;;;;;6.25;2.50;;;;;;;;5037985;28;45377;-68
2022/06/09 01:57:57;;;;;;;;;9.00;3.50;;;;;;;;5037971;28;45405;-68
2022/06/09 02:00:22;;;;;;;;;1.75;1.75;;;;;;;;5037695;28;47528;-68
2022/06/09 02:02:51;;;;;;;;;3.50;2.75;;;;;;;;5037591;28;45303;-68
2022/06/09 02:05:19;;;;;;;;;6.75;2.75;;;;;;;;5037972;28;45311;-68
2022/06/09 02:07:45;;;;;;;;;7.00;3.25;;;;;;;;5038069;28;45616;-68
2022/06/09 02:10:12;;;;;;;;;6.00;2.25;;;;;;;;5037584;28;46835;-68
2022/06/09 02:12:37;;;;;;;;;4.75;3.25;;;;;;;;5037894;28;45330;-68
2022/06/09 02:15:04;;;;;;;;;5.25;2.75;;;;;;;;5037713;28;45287;-68
2022/06/09 02:17:40;;;;;;;;;3.25;3.00;;;;;;;;5037754;28;45431;-68
2022/06/09 02:20:05;;;;;;;;;7.25;2.75;;;;;;;;5037661;28;45515;-68
2022/06/09 02:22:30;;;;;;;;;5.75;3.00;;;;;;;;5037446;28;45317;-68
2022/06/09 02:24:56;;;;;;;;;5.75;3.00;;;;;;;;5037713;28;45400;-68
2022/06/09 02:27:21;;;;;;;;;3.25;1.50;;;;;;;;5037738;28;45306;-69
2022/06/09 02:29:47;;;;;;;;;6.75;3.00;;;;;;;;5037305;28;45517;-69
2022/06/09 02:32:12;;;;;;;;;8.25;2.50;;;;;;;;5037240;28;45685;-68
2022/06/09 02:34:37;;;;;;;;;3.00;3.00;;;;;;;;5037498;28;45277;-68
2022/06/09 02:37:03;;;;;;;;;2.50;2.50;;;;;;;;5037770;28;45361;-69
2022/06/09 02:39:28;;;;;;;;;4.25;3.00;;;;;;;;5037050;28;46527;-68
2022/06/09 02:41:53;;;;;;;;;4.75;3.50;;;;;;;;5037464;28;45389;-68
2022/06/09 02:44:18;;;;;;;;;3.75;3.50;;;;;;;;5037462;28;45429;-68
2022/06/09 02:46:44;;;;;;;;;6.50;3.75;;;;;;;;5037211;28;45365;-68
2022/06/09 02:49:09;;;;;;;;;10.50;4.00;;;;;;;;5037212;28;45343;-68
2022/06/09 02:51:38;;;;;;;;;8.00;3.50;;;;;;;;5030302;28;45246;-68
2022/06/09 02:54:06;;;;;;;;;4.50;3.00;;;;;;;;5026295;28;45346;-68
2022/06/09 02:56:32;;;;;;;;;8.00;2.50;;;;;;;;5022038;28;45578;-68
2022/06/09 02:58:57;;;;;;;;;5.75;2.50;;;;;;;;5036747;28;45557;-68
2022/06/09 03:01:24;;;;;;;;;3.00;3.00;;;;;;;;5037163;28;45243;-68
2022/06/09 03:03:49;;;;;;;;;7.50;3.00;;;;;;;;5037058;28;45399;-68
2022/06/09 03:06:14;;;;;;;;;4.00;2.25;;;;;;;;5037084;28;45287;-68
2022/06/09 03:08:40;;;;;;;;;5.25;4.00;;;;;;;;5036882;28;46620;-68
2022/06/09 03:11:06;;;;;;;;;5.00;3.00;;;;;;;;5036793;28;45225;-68
2022/06/09 03:13:31;;;;;;;;;7.25;4.25;;;;;;;;5037149;28;45365;-68
2022/06/09 03:15:56;;;;;;;;;2.00;2.00;;;;;;;;5037160;28;45235;-68
2022/06/09 03:18:22;;;;;;;;;10.25;5.50;;;;;;;;5036513;28;45371;-68
2022/06/09 03:20:48;;;;;;;;;4.25;3.00;;;;;;;;5037037;28;45238;-68
2022/06/09 03:23:14;;;;;;;;;8.75;2.75;;;;;;;;5036784;28;45223;-68
2022/06/09 03:25:39;;;;;;;;;3.25;3.25;;;;;;;;5037062;28;45411;-68
2022/06/09 03:28:04;;;;;;;;;7.50;3.00;;;;;;;;5036174;28;45419;-68
2022/06/09 03:30:30;;;;;;;;;5.25;3.00;;;;;;;;5036249;28;45442;-68
2022/06/09 03:32:56;;;;;;;;;5.25;3.75;;;;;;;;5036582;28;45386;-68
2022/06/09 03:35:21;;;;;;;;;5.75;4.00;;;;;;;;5036805;28;45342;-68
2022/06/09 03:37:47;;;;;;;;;1.25;1.25;;;;;;;;5036058;28;45626;-68
2022/06/09 03:40:14;;;;;;;;;19.00;16.00;;;;;;;;5036324;28;45803;-68
2022/06/09 03:42:39;;;;;;;;;6.33;4.33;;;;;;;;5036628;28;45413;-68
2022/06/09 03:45:05;;;;;;;;;5.00;3.00;;;;;;;;5038137;28;45334;-68
2022/06/09 03:47:30;;;;;;;;;5.75;4.00;;;;;;;;5039567;28;46216;-68
2022/06/09 03:49:55;;;;;;;;;5.25;3.00;;;;;;;;5039974;28;45280;-68
2022/06/09 03:52:21;;;;;;;;;4.50;2.50;;;;;;;;5039832;28;45204;-68
2022/06/09 03:54:46;;;;;;;;;4.50;2.50;;;;;;;;5038283;28;45362;-68
2022/06/09 03:57:11;;;;;;;;;4.50;3.00;;;;;;;;5039593;28;46191;-68
2022/06/09 03:59:36;;;;;;;;;4.75;2.00;;;;;;;;5039467;28;45425;-68
2022/06/09 04:02:02;;;;;;;;;4.00;2.00;;;;;;;;5039681;28;45308;-68
2022/06/09 04:04:28;;;;;;;;;6.00;6.00;;;;;;;;5039497;28;45504;-68
2022/06/09 04:06:54;;;;;;;;;5.00;2.50;;;;;;;;5039031;28;46187;-68
2022/06/09 04:09:19;;;;;;;;;8.00;5.67;;;;;;;;5039425;28;45406;-68
2022/06/09 04:11:44;;;;;;;;;3.25;2.50;;;;;;;;5039402;28;45381;-68
2022/06/09 04:14:10;;;;;;;;;2.00;2.00;;;;;;;;5039743;28;45380;-68
2022/06/09 04:16:36;;;;;;;;;7.50;2.00;;;;;;;;5021301;28;47343;-68
2022/06/09 04:19:03;;;;;;;;;6.00;2.00;;;;;;;;5039156;28;45473;-68
2022/06/09 04:21:30;;;;;;;;;3.50;3.00;;;;;;;;5039511;28;45310;-68
2022/06/09 04:23:55;;;;;;;;;2.50;1.00;;;;;;;;5039008;28;45435;-68
2022/06/09 04:26:22;;;;;;;;;5.00;3.75;;;;;;;;5039093;28;46160;-68
2022/06/09 04:28:48;;;;;;;;;4.25;3.75;;;;;;;;5039274;28;45171;-69
2022/06/09 04:31:14;;;;;;;;;4.25;2.00;;;;;;;;5039153;28;45487;-68
2022/06/09 04:33:39;;;;;;;;;2.50;2.50;;;;;;;;5039304;28;45959;-68
2022/06/09 04:36:06;;;;;;;;;2.75;1.00;;;;;;;;5038892;28;46996;-68
2022/06/09 04:38:31;;;;;;;;;4.00;2.75;;;;;;;;5039072;28;45309;-68
2022/06/09 04:40:56;;;;;;;;;6.75;1.75;;;;;;;;5039240;28;45387;-68
2022/06/09 04:43:22;;;;;;;;;3.00;1.00;;;;;;;;5039190;28;45408;-68
2022/06/09 04:45:47;;;;;;;;;8.50;2.00;;;;;;;;5038979;28;45306;-68
2022/06/09 04:48:12;;;;;;;;;3.75;2.00;;;;;;;;5038600;28;45329;-69
2022/06/09 04:50:38;;;;;;;;;3.50;2.25;;;;;;;;5039358;28;45287;-68
2022/06/09 04:53:05;;;;;;;;;4.00;2.25;;;;;;;;5039067;28;45353;-68
2022/06/09 04:55:30;;;;;;;;;3.00;2.00;;;;;;;;5036931;28;47712;-68
2022/06/09 04:57:55;;;;;;;;;1.50;1.50;;;;;;;;5037508;28;45368;-68
2022/06/09 05:00:21;;;;;;;;;2.50;2.25;;;;;;;;5038534;28;45311;-68
2022/06/09 05:02:46;;;;;;;;;4.75;2.00;;;;;;;;5038888;28;45226;-68
2022/06/09 05:05:17;;;;;;;;;8.00;3.25;;;;;;;;5038288;28;45607;-68
2022/06/09 05:07:42;;;;;;;;;1.75;1.25;;;;;;;;5038494;28;45282;-68
2022/06/09 05:10:08;;;;;;;;;3.25;2.75;;;;;;;;5038378;28;45416;-69
2022/06/09 05:12:33;;;;;;;;;2.00;1.50;;;;;;;;5038782;28;45365;-68
2022/06/09 05:14:59;;;;;;;;;4.00;2.25;;;;;;;;5038680;28;45445;-68
2022/06/09 05:17:24;;;;;;;;;4.25;3.50;;;;;;;;5037437;28;45351;-68
2022/06/09 05:19:49;;;;;;;;;7.25;2.25;;;;;;;;5038592;28;45497;-69
2022/06/09 05:22:14;;;;;;;;;9.25;4.00;;;;;;;;5039020;28;45337;-68
2022/06/09 05:24:40;;;;;;;;;4.75;2.00;;;;;;;;5038132;28;46196;-68
2022/06/09 05:27:05;;;;;;;;;11.00;6.00;;;;;;;;5036798;28;45407;-68
2022/06/09 05:29:30;;;;;;;;;9.00;7.33;;;;;;;;5038397;28;45314;-69
2022/06/09 05:31:55;;;;;;;;;3.25;3.25;;;;;;;;5038329;28;45480;-68
2022/06/09 05:34:21;;;;;;;;;2.25;2.00;;;;;;;;5038112;28;45979;-68
2022/06/09 05:36:46;;;;;;;;;16.33;9.67;;;;;;;;5038067;28;45451;-68
2022/06/09 05:44:52;;;;;;;;;4.00;2.50;;;;;;;;5037900;28;45262;-69
2022/06/09 05:47:20;;;;;;;;;2.50;1.50;;;;;;;;5037598;28;45313;-68
2022/06/09 05:49:47;;;;;;;;;2.75;2.75;;;;;;;;5037600;28;45484;-69
2022/06/09 05:52:13;;;;;;;;;5.50;2.50;;;;;;;;5037337;28;45396;-68
2022/06/09 05:54:38;;;;;;;;;9.00;4.50;;;;;;;;5037524;28;46267;-68
2022/06/09 05:57:03;;;;;;;;;2.75;2.00;;;;;;;;5037662;28;45559;-69
2022/06/09 05:59:29;;;;;;;;;5.25;3.00;;;;;;;;5037452;28;45441;-69
2022/06/09 06:01:54;;;;;;;;;7.00;1.25;;;;;;;;5037584;28;45358;-69
2022/06/09 06:04:19;;;;;;;;;3.00;3.00;;;;;;;;5037657;28;45403;-69
2022/06/09 06:06:45;;;;;;;;;4.75;4.00;;;;;;;;5037237;28;45300;-68
2022/06/09 06:09:16;;;;;;;;;9.33;5.00;;;;;;;;5037819;28;45171;-68
2022/06/09 06:11:42;;;;;;;;;10.25;4.75;;;;;;;;5037848;28;45404;-69
2022/06/09 06:14:08;;;;;;;;;5.75;4.25;;;;;;;;5036955;28;45437;-69
2022/06/09 06:16:34;;;;;;;;;9.50;4.75;;;;;;;;5037490;28;45723;-69
2022/06/09 06:18:59;;;;;;;;;8.00;4.00;;;;;;;;5037144;28;45305;-69
2022/06/09 06:21:24;;;;;;;;;5.25;3.00;;;;;;;;5037192;28;45361;-68
2022/06/09 06:23:50;;;;;;;;;9.67;6.00;;;;;;;;5037457;28;46542;-69
2022/06/09 06:26:16;;;;;;;;;4.75;4.75;;;;;;;;5037135;28;45191;-68
2022/06/09 06:28:41;;;;;;;;;5.33;5.33;;;;;;;;5037446;28;45214;-69
2022/06/09 06:31:06;;;;;;;;;4.75;3.00;;;;;;;;5037526;28;45510;-69
2022/06/09 06:33:31;;;;;;;;;7.00;4.00;;;;;;;;5036974;28;46368;-69
2022/06/09 06:35:56;;;;;;;;;5.50;4.00;;;;;;;;5036962;28;45334;-69
2022/06/09 06:38:22;;;;;;;;;2.50;2.50;;;;;;;;5037223;28;45250;-69
2022/06/09 06:40:47;;;;;;;;;5.00;3.33;;;;;;;;5037396;28;45421;-68
2022/06/09 06:43:12;;;;;;;;;5.00;4.00;;;;;;;;5036803;28;47338;-69
2022/06/09 06:45:37;;;;;;;;;6.00;3.33;;;;;;;;5037278;28;45243;-69
2022/06/09 06:48:03;;;;;;;;;3.75;2.75;;;;;;;;5037005;28;45281;-68
2022/06/09 06:50:28;;;;;;;;;9.00;3.00;;;;;;;;5036312;28;45479;-69
2022/06/09 06:52:53;;;;;;;;;8.67;2.67;;;;;;;;5036976;28;45397;-69
2022/06/09 06:55:20;;;;;;;;;5.33;3.67;;;;;;;;5037107;28;45309;-68
2022/06/09 06:57:46;;;;;;;;;5.25;3.50;;;;;;;;5037037;28;45806;-69
2022/06/09 07:00:12;;;;;;;;;6.33;4.00;;;;;;;;5037063;28;45571;-69
2022/06/09 07:02:38;;;;;;;;;12.00;10.67;;;;;;;;5036753;28;46782;-69
2022/06/09 07:05:03;;;;;;;;;5.67;4.00;;;;;;;;5036324;28;45294;-69
2022/06/09 07:07:30;;;;;;;;;7.00;7.00;;;;;;;;5036882;28;45315;-68
2022/06/09 07:09:55;;;;;;;;;6.50;4.75;;;;;;;;5037199;28;45243;-70
2022/06/09 07:12:20;;;;;;;;;10.25;5.25;;;;;;;;5036171;28;45426;-69
2022/06/09 07:14:45;;;;;;;;;4.67;3.33;;;;;;;;5036768;28;45223;-69
2022/06/09 07:17:10;;;;;;;;;8.00;3.75;;;;;;;;5036533;28;45261;-68
2022/06/09 07:19:36;;;;;;;;;6.33;4.00;;;;;;;;5038117;28;45190;-69
2022/06/09 07:22:02;;;;;;;;;8.00;5.00;;;;;;;;5040308;28;46631;-69
2022/06/09 07:24:28;;;;;;;;;5.00;4.00;;;;;;;;5039946;28;45520;-69
2022/06/09 07:26:53;;;;;;;;;9.67;3.33;;;;;;;;5040268;28;45404;-69
2022/06/09 07:29:19;;;;;;;;;7.50;3.00;;;;;;;;5040681;28;45298;-69
2022/06/09 07:31:44;;;;;;;;;4.50;3.00;;;;;;;;5039043;28;46572;-69
2022/06/09 07:34:09;;;;;;;;;5.00;3.00;;;;;;;;5038087;28;45260;-69
2022/06/09 07:36:35;;;;;;;;;6.33;6.33;;;;;;;;5040161;28;45254;-69
2022/06/09 07:39:00;;;;;;;;;5.50;3.00;;;;;;;;5040046;28;45500;-69
2022/06/09 07:41:26;;;;;;;;;11.67;4.33;;;;;;;;5038802;28;46384;-69
2022/06/09 07:43:51;;;;;;;;;4.00;2.67;;;;;;;;5039691;28;45401;-69
2022/06/09 07:46:17;;;;;;;;;6.33;3.33;;;;;;;;5039926;28;45369;-71
2022/06/09 07:48:42;;;;;;;;;3.67;3.33;;;;;;;;5038732;28;45391;-70
2022/06/09 07:51:08;;;;;;;;;9.25;3.00;;;;;;;;5039535;28;46171;-71
2022/06/09 07:53:34;;;;;;;;;4.00;4.00;;;;;;;;5039564;28;45367;-71
2022/06/09 07:55:59;;;;;;;;;7.00;4.33;;;;;;;;5039660;28;45409;-70
2022/06/09 07:58:24;;;;;;;;;10.00;7.00;;;;;;;;5038221;28;45539;-70
2022/06/09 08:00:49;;;;;;;;;6.00;4.00;;;;;;;;5039427;28;46474;-71
2022/06/09 08:03:16;;;;;;;;;11.33;5.67;;;;;;;;5039303;28;45453;-69
2022/06/09 08:05:41;;;;;;;;;5.00;3.00;;;;;;;;5037487;28;45473;-73
2022/06/09 08:08:07;;;;;;;;;3.75;3.50;;;;;;;;5039576;28;45346;-70
2022/06/09 08:10:33;;;;;;;;;7.00;5.33;;;;;;;;5039600;28;46117;-70
2022/06/09 08:13:00;;;;;;;;;6.00;4.67;;;;;;;;5039518;28;45230;-71
2022/06/09 08:15:26;;;;;;;;;12.33;9.00;;;;;;;;5038939;28;45409;-69
2022/06/09 08:17:52;;;;;;;;;8.00;5.33;;;;;;;;5038759;28;45407;-68
2022/06/09 08:20:17;;;;;;;;;13.33;12.33;;;;;;;;5038644;28;46328;-67
2022/06/09 08:22:43;;;;;;;;;9.67;5.67;;;;;;;;5039253;28;45426;-68
2022/06/09 08:25:09;;;;;;;;;7.00;4.33;;;;;;;;5039175;28;45329;-70
2022/06/09 08:27:35;;;;;;;;;4.00;4.00;;;;;;;;5039282;28;45444;-72
2022/06/09 08:30:00;;;;;;;;;4.00;4.00;;;;;;;;5038896;28;45486;-68
2022/06/09 08:32:25;;;;;;;;;5.75;5.00;;;;;;;;5038959;28;45368;-69
2022/06/09 08:34:50;;;;;;;;;7.33;4.00;;;;;;;;5039255;28;45346;-71
2022/06/09 08:37:16;;;;;;;;;2.50;2.50;;;;;;;;5039075;28;45591;-71
2022/06/09 08:39:41;;;;;;;;;6.00;4.00;;;;;;;;5038857;28;46455;-68
2022/06/09 08:42:21;;;;;;;;;6.67;6.67;;;;;;;;5038875;28;45318;-69
2022/06/09 08:44:57;;;;;;;;;6.67;4.00;;;;;;;;5039077;28;45430;-69
2022/06/09 08:47:37;;;;;;;;;6.00;4.00;;;;;;;;5038967;28;45416;-71
2022/06/09 08:50:05;;;;;;;;;4.00;4.00;;;;;;;;5038333;28;47053;-71
2022/06/09 08:52:42;;;;;;;;;2.67;2.67;;;;;;;;5038993;28;45432;-71
2022/06/09 08:55:23;;;;;;;;;8.00;3.33;;;;;;;;5039068;28;45266;-75
2022/06/09 08:57:50;;;;;;;;;4.33;3.00;;;;;;;;5038907;28;45697;-71
2022/06/09 09:00:18;;;;;;;;;7.67;6.00;;;;;;;;5038529;28;45925;-71
2022/06/09 09:02:47;;;;;;;;;6.00;5.00;;;;;;;;5038730;28;45339;-71
2022/06/09 09:05:18;;;;;;;;;5.00;4.00;;;;;;;;5038491;28;45344;-71
2022/06/09 09:07:46;;;;;;;;;5.67;5.00;;;;;;;;5038803;28;45413;-71
2022/06/09 09:10:11;;;;;;;;;9.00;7.00;;;;;;;;5038571;28;46352;-70
2022/06/09 09:12:42;;;;;;;;;24.67;15.67;;;;;;;;5038346;28;45420;-70
2022/06/09 09:15:30;;;;;;;;;11.00;8.00;;;;;;;;5038205;28;45303;-70
2022/06/09 09:18:05;;;;;;;;;18.67;15.33;;;;;;;;5038718;28;45386;-70
2022/06/09 09:20:34;;;;;;;;;31.00;23.33;;;;;;;;5037994;28;46614;-71
2022/06/09 09:22:59;;;;;;;;;10.00;8.00;;;;;;;;5038311;28;45215;-71
2022/06/09 09:25:32;;;;;;;;;10.67;10.00;;;;;;;;5036808;28;45355;-72
2022/06/09 09:28:10;;;;;;;;;15.00;10.00;;;;;;;;5038741;28;45438;-71
2022/06/09 09:30:48;;;;;;;;;17.00;14.00;;;;;;;;5038056;28;47398;-69
2022/06/09 09:33:16;;;;;;;;;26.33;22.00;;;;;;;;5038122;28;45402;-72
2022/06/09 09:35:43;;;;;;;;;10.67;8.00;;;;;;;;5038013;28;45235;-73
2022/06/09 09:38:09;;;;;;;;;5.00;4.00;;;;;;;;5038628;28;45437;-70
2022/06/09 09:40:36;;;;;;;;;14.67;11.00;;;;;;;;5037390;28;45309;-74
2022/06/09 09:43:10;;;;;;;;;7.67;4.33;;;;;;;;5037332;28;45396;-73
2022/06/09 09:45:37;;;;;;;;;6.67;5.00;;;;;;;;5038225;28;45810;-75
2022/06/09 09:48:05;;;;;;;;;5.00;5.00;;;;;;;;5038099;28;45483;-76
2022/06/09 09:50:36;;;;;;;;;3.00;3.00;;;;;;;;5037734;28;46677;-70
2022/06/09 09:53:04;;;;;;;;;0.67;0.00;;;;;;;;5037899;28;45437;-68
2022/06/09 09:55:32;;;;;;;;;9.00;8.67;;;;;;;;5037954;28;45354;-69
2022/06/09 09:58:13;;;;;;;;;5.00;3.00;;;;;;;;5038015;28;45516;-72
2022/06/09 10:00:38;;;;;;;;;5.00;4.00;;;;;;;;5037720;28;45531;-67
2022/06/09 10:08:40;;;;;;;;;11.00;8.00;;;;;;;;5037679;28;45378;-76
2022/06/09 10:13:59;;;;;;;;;2.67;2.67;;;;;;;;5036690;28;45295;-73
2022/06/09 10:16:27;;;;;;;;;3.33;3.33;;;;;;;;5036001;28;45428;-75
2022/06/09 10:18:53;;;;;;;;;17.33;14.67;;;;;;;;5037487;28;45586;-74
2022/06/09 10:21:19;;;;;;;;;8.67;7.00;;;;;;;;5036564;28;45564;-74
2022/06/09 10:23:52;;;;;;;;;8.33;7.33;;;;;;;;5037215;28;45412;-70
2022/06/09 10:26:22;;;;;;;;;8.00;6.67;;;;;;;;5037551;28;45495;-69
2022/06/09 10:28:57;;;;;;;;;28.00;24.00;;;;;;;;5037668;28;45414;-67
2022/06/09 10:31:22;;;;;;;;;15.67;9.00;;;;;;;;5036981;28;45254;-71
2022/06/09 10:33:50;;;;;;;;;16.00;13.00;;;;;;;;5037137;28;45378;-70
2022/06/09 10:36:24;;;;;;;;;9.00;7.00;;;;;;;;5037471;28;45345;-71
2022/06/09 10:39:13;;;;;;;;;5.67;3.67;;;;;;;;5037415;28;45156;-74
2022/06/09 10:41:40;;;;;;;;;2.67;2.67;;;;;;;;5015103;28;46438;-71
2022/06/09 10:44:13;;;;;;;;;34.25;29.75;;;;;;;;5014972;28;45303;-70
2022/06/09 10:55:14;;;;;;;;;38.75;33.25;;;;;;;;5014928;28;45361;-73
2022/06/09 10:55:26;;;;;;;;;6.67;5.00;;;;;;;;5017289;28;45499;-74
2022/06/09 10:57:57;;;;;;;;;4.00;2.00;;;;;;;;5018367;28;45370;-74
2022/06/09 11:00:24;;;;;;;;;2.33;2.33;;;;;;;;5018870;28;45528;-74
2022/06/09 11:02:51;;;;;;;;;7.33;6.33;;;;;;;;5018358;28;45577;-73
2022/06/09 11:05:19;;;;;;;;;4.33;4.33;;;;;;;;5018061;28;45390;-72
2022/06/09 11:07:47;;;;;;;;;2.33;1.67;;;;;;;;5018559;28;45409;-74
2022/06/09 11:10:28;;;;;;;;;2.33;2.00;;;;;;;;5016892;28;45580;-75
2022/06/09 11:12:53;;;;;;;;;2.67;2.00;;;;;;;;5017584;28;46216;-71
2022/06/09 11:15:25;;;;;;;;;5.00;5.00;;;;;;;;5018636;28;45283;-73
2022/06/09 11:17:53;;;;;;;;;3.33;1.67;;;;;;;;5022101;28;45409;-73
2022/06/09 11:20:24;;;;;;;;;0.67;0.67;;;;;;;;5039466;28;45476;-69
2022/06/09 11:23:08;;;;;;;;;3.00;3.00;;;;;;;;5039399;28;45574;-69
2022/06/09 11:25:48;;;;;;;;;6.33;4.00;;;;;;;;5040148;28;45418;-70
2022/06/09 11:28:16;;;;;;;;;3.33;1.67;;;;;;;;5040498;28;45235;-69
2022/06/09 11:31:04;;;;;;;;;2.67;2.67;;;;;;;;5040490;28;45349;-68
2022/06/09 11:33:47;;;;;;;;;7.67;7.67;;;;;;;;5038719;28;45383;-68
2022/06/09 11:36:16;;;;;;;;;4.00;4.00;;;;;;;;5039101;28;45394;-69
2022/06/09 11:38:44;;;;;;;;;16.00;14.67;;;;;;;;5039284;28;45406;-70
2022/06/09 11:41:17;;;;;;;;;5.33;5.00;;;;;;;;5039326;28;45373;-71
2022/06/09 11:43:45;;;;;;;;;2.67;2.00;;;;;;;;5039304;28;46443;-69
2022/06/09 11:46:15;;;;;;;;;3.00;1.00;;;;;;;;5039969;28;45323;-72
2022/06/09 11:48:42;;;;;;;;;4.00;3.00;;;;;;;;5040059;28;45318;-74
2022/06/09 11:51:08;;;;;;;;;3.00;3.00;;;;;;;;5039849;28;45818;-71
2022/06/09 11:53:37;;;;;;;;;2.67;2.00;;;;;;;;5039872;28;46520;-69
2022/06/09 11:56:33;;;;;;;;;2.00;2.00;;;;;;;;5039340;28;45366;-77
2022/06/09 11:58:59;;;;;;;;;5.33;4.00;;;;;;;;5039542;28;45415;-75
2022/06/09 12:01:30;;;;;;;;;5.67;5.67;;;;;;;;5039852;28;45421;-76
2022/06/09 12:04:18;;;;;;;;;4.00;4.00;;;;;;;;5039583;28;46171;-73
2022/06/09 12:06:52;;;;;;;;;2.67;2.67;;;;;;;;5016691;28;45456;-74
2022/06/09 12:09:17;;;;;;;;;6.00;4.00;;;;;;;;5017286;28;45561;-73
2022/06/09 12:11:55;;;;;;;;;7.33;3.00;;;;;;;;5017093;28;45408;-77
2022/06/09 12:14:26;;;;;;;;;8.33;8.33;;;;;;;;5017297;28;46562;-70
2022/06/09 12:17:11;;;;;;;;;7.33;5.67;;;;;;;;5017187;28;45358;-70
2022/06/09 12:19:59;;;;;;;;;6.00;3.00;;;;;;;;5017220;28;45494;-70
2022/06/09 12:22:31;;;;;;;;;4.00;2.00;;;;;;;;5017599;28;45367;-69
2022/06/09 12:25:01;;;;;;;;;8.33;6.33;;;;;;;;5016791;28;46142;-70
2022/06/09 12:27:35;;;;;;;;;4.00;3.00;;;;;;;;5016883;28;45345;-70
2022/06/09 12:30:00;;;;;;;;;6.00;4.33;;;;;;;;5017109;28;45556;-70
2022/06/09 12:32:43;;;;;;;;;8.67;7.67;;;;;;;;5017252;28;45402;-71
2022/06/09 12:35:20;;;;;;;;;9.33;8.00;;;;;;;;5016623;28;45584;-71
2022/06/09 12:37:51;;;;;;;;;5.67;3.00;;;;;;;;5016654;28;45231;-70
2022/06/09 12:40:20;;;;;;;;;4.00;4.00;;;;;;;;5017066;28;45394;-70
2022/06/09 12:42:47;;;;;;;;;5.00;2.33;;;;;;;;5018949;28;45527;-71
2022/06/09 12:45:12;;;;;;;;;4.00;4.00;;;;;;;;5038600;28;45466;-71
2022/06/09 12:47:50;;;;;;;;;6.00;4.33;;;;;;;;5038869;28;45326;-71
2022/06/09 12:50:27;;;;;;;;;4.00;3.00;;;;;;;;5038893;28;45274;-70
2022/06/09 12:52:54;;;;;;;;;5.33;4.00;;;;;;;;5038823;28;45353;-72
2022/06/09 12:55:19;;;;;;;;;8.00;5.33;;;;;;;;5038813;28;46532;-71
2022/06/09 12:57:47;;;;;;;;;7.00;5.33;;;;;;;;5038481;28;45362;-72
2022/06/09 13:00:16;;;;;;;;;4.00;4.00;;;;;;;;5038864;28;45389;-74
2022/06/09 13:02:42;;;;;;;;;6.67;6.00;;;;;;;;5038944;28;45563;-73
2022/06/09 13:05:10;;;;;;;;;6.33;5.00;;;;;;;;5038266;28;46503;-73
2022/06/09 13:07:38;;;;;;;;;3.67;2.00;;;;;;;;5038688;28;45347;-78
2022/06/09 13:10:03;;;;;;;;;2.00;2.00;;;;;;;;5038678;28;45460;-71
2022/06/09 13:15:20;;;;;;;;;9.67;8.00;;;;;;;;5038400;28;45756;-72
2022/06/09 13:17:46;;;;;;;;;10.67;9.00;;;;;;;;5037496;28;45294;-73
2022/06/09 13:20:14;;;;;;;;;4.67;3.33;;;;;;;;5038259;28;45537;-74
2022/06/09 13:22:40;;;;;;;;;8.67;8.33;;;;;;;;5038763;28;45501;-75
2022/06/09 13:25:11;;;;;;;;;6.00;2.33;;;;;;;;5038356;28;45315;-73
2022/06/09 13:27:38;;;;;;;;;6.00;2.67;;;;;;;;5038263;28;45283;-77
2022/06/09 13:30:16;;;;;;;;;2.00;2.00;;;;;;;;5038726;28;45409;-82
2022/06/09 13:32:43;;;;;;;;;4.00;2.00;;;;;;;;5038641;28;45444;-76
2022/06/09 13:35:27;;;;;;;;;2.00;2.00;;;;;;;;5037678;28;46390;-69
2022/06/09 13:38:01;;;;;;;;;2.67;1.00;;;;;;;;5038069;28;45385;-79
2022/06/09 13:40:26;;;;;;;;;2.00;2.00;;;;;;;;5037315;28;45516;-71
2022/06/09 13:42:56;;;;;;;;;4.67;3.00;;;;;;;;5038354;28;45429;-71
2022/06/09 13:45:26;;;;;;;;;2.00;2.00;;;;;;;;5037723;28;45738;-71
2022/06/09 13:48:06;;;;;;;;;5.33;2.67;;;;;;;;5038050;28;45309;-70
2022/06/09 13:50:38;;;;;;;;;7.67;7.67;;;;;;;;5038340;28;45293;-70
2022/06/09 13:53:12;;;;;;;;;1.33;1.33;;;;;;;;5038159;28;45410;-69
2022/06/09 13:55:38;;;;;;;;;4.33;4.00;;;;;;;;5037709;28;46532;-69
2022/06/09 13:58:06;;;;;;;;;4.67;3.33;;;;;;;;5037519;28;45314;-70
2022/06/09 14:00:45;;;;;;;;;5.00;2.33;;;;;;;;5037755;28;45223;-69
2022/06/09 14:03:13;;;;;;;;;2.00;1.67;;;;;;;;5037832;28;45523;-69
2022/06/09 14:05:40;;;;;;;;;8.00;4.67;;;;;;;;5035748;28;46645;-69
2022/06/09 14:08:06;;;;;;;;;3.67;3.00;;;;;;;;5037768;28;45330;-68
2022/06/09 14:10:32;;;;;;;;;3.67;2.33;;;;;;;;5037675;28;45469;-69
2022/06/09 14:12:58;;;;;;;;;4.67;1.33;;;;;;;;5037887;28;45227;-70
2022/06/09 14:15:24;;;;;;;;;3.00;1.00;;;;;;;;5037484;28;46428;-70
2022/06/09 14:17:51;;;;;;;;;3.00;3.00;;;;;;;;5037617;28;45417;-73
2022/06/09 14:20:26;;;;;;;;;3.67;2.00;;;;;;;;5037503;28;45452;-70
2022/06/09 14:22:51;;;;;;;;;2.00;2.00;;;;;;;;5037460;28;45322;-70
2022/06/09 14:25:16;;;;;;;;;2.00;2.00;;;;;;;;5037276;28;45335;-72
2022/06/09 14:27:42;;;;;;;;;3.33;2.67;;;;;;;;5037342;28;45290;-71
2022/06/09 14:30:08;;;;;;;;;7.00;2.00;;;;;;;;5036216;28;45393;-73
2022/06/09 14:32:35;;;;;;;;;1.67;1.67;;;;;;;;5037388;28;45428;-75
2022/06/09 14:35:00;;;;;;;;;4.00;3.00;;;;;;;;5036976;28;46443;-71
2022/06/09 14:37:26;;;;;;;;;5.00;3.00;;;;;;;;5037011;28;45263;-71
2022/06/09 14:39:51;;;;;;;;;5.00;1.67;;;;;;;;5036250;28;45155;-71
2022/06/09 14:42:17;;;;;;;;;3.00;2.00;;;;;;;;5034961;28;45477;-71
2022/06/09 14:44:43;;;;;;;;;3.33;1.00;;;;;;;;5036145;28;46865;-71
2022/06/09 14:47:22;;;;;;;;;1.00;1.00;;;;;;;;5037133;28;45748;-71
2022/06/09 14:49:47;;;;;;;;;3.33;2.00;;;;;;;;5037289;28;45451;-71
2022/06/09 14:52:15;;;;;;;;;9.00;7.33;;;;;;;;5036971;28;45472;-70
2022/06/09 14:54:41;;;;;;;;;9.00;4.00;;;;;;;;5037046;28;46129;-71
2022/06/09 14:57:06;;;;;;;;;2.33;2.00;;;;;;;;5036563;28;45433;-71
2022/06/09 14:59:31;;;;;;;;;6.00;1.00;;;;;;;;5037192;28;45241;-71
2022/06/09 15:01:57;;;;;;;;;4.33;1.33;;;;;;;;5037219;28;45430;-71
2022/06/09 15:04:22;;;;;;;;;3.00;2.00;;;;;;;;5036600;28;47514;-70
2022/06/09 15:06:47;;;;;;;;;3.00;2.00;;;;;;;;5036813;28;45341;-72
2022/06/09 15:09:13;;;;;;;;;4.00;2.00;;;;;;;;5036934;28;45313;-71